sensor_id;sensor_type;location;lat;lon;timestamp;P1;durP1;ratioP1;P2;durP2;ratioP2
78426;SDS011;67722;50.204;8.570;2023-09-19T00:01:42;1.98;;;1.10;;
78426;SDS011;67722;50.204;8.570;2023-09-19T00:04:10;0.50;;;0.30;;
78426;SDS011;67722;50.204;8.570;2023-09-19T00:06:37;1.17;;;0.65;;
78426;SDS011;67722;50.204;8.570;2023-09-19T00:09:03;3.03;;;0.40;;
78426;SDS011;67722;50.204;8.570;2023-09-19T00:11:28;0.90;;;0.55;;
78426;SDS011;67722;50.204;8.570;2023-09-19T00:13:54;1.77;;;0.80;;
78426;SDS011;67722;50.204;8.570;2023-09-19T00:16:19;1.67;;;0.77;;
78426;SDS011;67722;50.204;8.570;2023-09-19T00:18:45;2.10;;;0.87;;
78426;SDS011;67722;50.204;8.570;2023-09-19T00:21:10;2.78;;;1.17;;
78426;SDS011;67722;50.204;8.570;2023-09-19T00:23:36;2.60;;;1.35;;
78426;SDS011;67722;50.204;8.570;2023-09-19T00:26:01;3.63;;;1.25;;
78426;SDS011;67722;50.204;8.570;2023-09-19T00:28:28;2.53;;;1.05;;
78426;SDS011;67722;50.204;8.570;2023-09-19T00:30:54;1.73;;;0.93;;
78426;SDS011;67722;50.204;8.570;2023-09-19T00:33:20;3.50;;;1.27;;
78426;SDS011;67722;50.204;8.570;2023-09-19T00:35:52;6.47;;;1.65;;
78426;SDS011;67722;50.204;8.570;2023-09-19T00:38:19;5.10;;;1.60;;
78426;SDS011;67722;50.204;8.570;2023-09-19T00:40:51;2.17;;;1.27;;
78426;SDS011;67722;50.204;8.570;2023-09-19T00:43:17;1.83;;;1.08;;
78426;SDS011;67722;50.204;8.570;2023-09-19T00:45:43;2.27;;;1.33;;
78426;SDS011;67722;50.204;8.570;2023-09-19T00:48:14;2.80;;;1.10;;
78426;SDS011;67722;50.204;8.570;2023-09-19T00:50:41;2.40;;;1.00;;
78426;SDS011;67722;50.204;8.570;2023-09-19T00:53:07;0.93;;;0.60;;
78426;SDS011;67722;50.204;8.570;2023-09-19T00:55:33;2.60;;;1.05;;
78426;SDS011;67722;50.204;8.570;2023-09-19T00:57:59;1.73;;;1.30;;
78426;SDS011;67722;50.204;8.570;2023-09-19T01:00:25;1.23;;;0.63;;
78426;SDS011;67722;50.204;8.570;2023-09-19T01:02:50;1.13;;;0.77;;
78426;SDS011;67722;50.204;8.570;2023-09-19T01:05:16;3.37;;;0.93;;
78426;SDS011;67722;50.204;8.570;2023-09-19T01:07:42;3.45;;;0.80;;
78426;SDS011;67722;50.204;8.570;2023-09-19T01:10:10;1.83;;;1.15;;
78426;SDS011;67722;50.204;8.570;2023-09-19T01:26:11;1.00;;;0.50;;
78426;SDS011;67722;50.204;8.570;2023-09-19T01:31:28;1.50;;;0.70;;
78426;SDS011;67722;50.204;8.570;2023-09-19T01:36:22;1.42;;;0.90;;
78426;SDS011;67722;50.204;8.570;2023-09-19T01:38:49;1.50;;;0.85;;
78426;SDS011;67722;50.204;8.570;2023-09-19T01:41:15;3.83;;;1.10;;
78426;SDS011;67722;50.204;8.570;2023-09-19T01:43:44;1.73;;;0.80;;
78426;SDS011;67722;50.204;8.570;2023-09-19T01:46:30;2.55;;;0.98;;
78426;SDS011;67722;50.204;8.570;2023-09-19T01:51:32;1.35;;;0.77;;
78426;SDS011;67722;50.204;8.570;2023-09-19T01:56:33;1.00;;;0.65;;
78426;SDS011;67722;50.204;8.570;2023-09-19T01:59:13;1.75;;;0.90;;
78426;SDS011;67722;50.204;8.570;2023-09-19T02:01:39;6.20;;;1.52;;
78426;SDS011;67722;50.204;8.570;2023-09-19T02:04:05;3.30;;;0.90;;
78426;SDS011;67722;50.204;8.570;2023-09-19T02:06:30;1.67;;;0.98;;
78426;SDS011;67722;50.204;8.570;2023-09-19T02:08:56;2.33;;;1.00;;
78426;SDS011;67722;50.204;8.570;2023-09-19T02:11:22;1.40;;;0.70;;
78426;SDS011;67722;50.204;8.570;2023-09-19T02:13:47;2.10;;;0.80;;
78426;SDS011;67722;50.204;8.570;2023-09-19T02:16:13;1.67;;;0.70;;
78426;SDS011;67722;50.204;8.570;2023-09-19T02:18:42;1.35;;;0.80;;
78426;SDS011;67722;50.204;8.570;2023-09-19T02:21:07;4.50;;;0.90;;
78426;SDS011;67722;50.204;8.570;2023-09-19T02:23:34;0.80;;;0.52;;
78426;SDS011;67722;50.204;8.570;2023-09-19T02:26:00;1.08;;;0.65;;
78426;SDS011;67722;50.204;8.570;2023-09-19T02:28:26;0.90;;;0.40;;
78426;SDS011;67722;50.204;8.570;2023-09-19T02:30:58;1.20;;;0.57;;
78426;SDS011;67722;50.204;8.570;2023-09-19T02:33:24;3.38;;;0.75;;
78426;SDS011;67722;50.204;8.570;2023-09-19T02:35:49;1.90;;;1.13;;
78426;SDS011;67722;50.204;8.570;2023-09-19T02:38:15;4.68;;;0.75;;
78426;SDS011;67722;50.204;8.570;2023-09-19T02:40:43;1.95;;;0.52;;
78426;SDS011;67722;50.204;8.570;2023-09-19T02:43:08;1.83;;;0.60;;
78426;SDS011;67722;50.204;8.570;2023-09-19T02:45:34;0.80;;;0.40;;
78426;SDS011;67722;50.204;8.570;2023-09-19T02:47:59;1.67;;;0.80;;
78426;SDS011;67722;50.204;8.570;2023-09-19T02:50:25;3.05;;;0.68;;
78426;SDS011;67722;50.204;8.570;2023-09-19T02:52:50;0.73;;;0.30;;
78426;SDS011;67722;50.204;8.570;2023-09-19T02:55:16;1.33;;;0.75;;
78426;SDS011;67722;50.204;8.570;2023-09-19T03:00:17;0.50;;;0.40;;
78426;SDS011;67722;50.204;8.570;2023-09-19T03:02:49;1.40;;;0.80;;
78426;SDS011;67722;50.204;8.570;2023-09-19T03:05:16;2.65;;;0.60;;
78426;SDS011;67722;50.204;8.570;2023-09-19T03:07:42;2.53;;;0.73;;
78426;SDS011;67722;50.204;8.570;2023-09-19T03:10:08;0.88;;;0.68;;
78426;SDS011;67722;50.204;8.570;2023-09-19T03:12:34;1.15;;;0.35;;
78426;SDS011;67722;50.204;8.570;2023-09-19T03:14:59;2.13;;;0.88;;
78426;SDS011;67722;50.204;8.570;2023-09-19T03:17:25;3.22;;;0.85;;
78426;SDS011;67722;50.204;8.570;2023-09-19T03:19:50;1.83;;;0.63;;
78426;SDS011;67722;50.204;8.570;2023-09-19T03:22:16;5.50;;;0.90;;
78426;SDS011;67722;50.204;8.570;2023-09-19T03:24:41;1.08;;;0.50;;
78426;SDS011;67722;50.204;8.570;2023-09-19T03:27:11;1.00;;;0.60;;
78426;SDS011;67722;50.204;8.570;2023-09-19T03:29:39;1.10;;;0.50;;
78426;SDS011;67722;50.204;8.570;2023-09-19T03:32:05;2.10;;;1.25;;
78426;SDS011;67722;50.204;8.570;2023-09-19T03:34:30;0.82;;;0.70;;
78426;SDS011;67722;50.204;8.570;2023-09-19T03:36:55;0.95;;;0.55;;
78426;SDS011;67722;50.204;8.570;2023-09-19T03:39:21;1.58;;;0.82;;
78426;SDS011;67722;50.204;8.570;2023-09-19T03:41:46;2.17;;;0.68;;
78426;SDS011;67722;50.204;8.570;2023-09-19T03:44:13;1.83;;;0.73;;
78426;SDS011;67722;50.204;8.570;2023-09-19T03:46:38;1.08;;;0.63;;
78426;SDS011;67722;50.204;8.570;2023-09-19T03:49:04;1.85;;;0.88;;
78426;SDS011;67722;50.204;8.570;2023-09-19T03:51:29;2.88;;;1.30;;
78426;SDS011;67722;50.204;8.570;2023-09-19T03:53:54;2.05;;;0.80;;
78426;SDS011;67722;50.204;8.570;2023-09-19T03:56:20;2.50;;;0.97;;
78426;SDS011;67722;50.204;8.570;2023-09-19T03:58:45;2.87;;;1.40;;
78426;SDS011;67722;50.204;8.570;2023-09-19T04:01:10;1.67;;;0.98;;
78426;SDS011;67722;50.204;8.570;2023-09-19T04:03:38;1.67;;;1.17;;
78426;SDS011;67722;50.204;8.570;2023-09-19T04:06:13;5.40;;;0.93;;
78426;SDS011;67722;50.204;8.570;2023-09-19T04:08:39;3.20;;;1.38;;
78426;SDS011;67722;50.204;8.570;2023-09-19T04:11:04;2.53;;;1.60;;
78426;SDS011;67722;50.204;8.570;2023-09-19T04:13:30;1.63;;;0.93;;
78426;SDS011;67722;50.204;8.570;2023-09-19T04:15:55;1.70;;;1.10;;
78426;SDS011;67722;50.204;8.570;2023-09-19T04:18:20;2.20;;;1.05;;
78426;SDS011;67722;50.204;8.570;2023-09-19T04:20:51;2.58;;;1.52;;
78426;SDS011;67722;50.204;8.570;2023-09-19T04:23:16;2.10;;;0.90;;
78426;SDS011;67722;50.204;8.570;2023-09-19T04:25:42;1.73;;;0.95;;
78426;SDS011;67722;50.204;8.570;2023-09-19T04:28:08;2.05;;;1.05;;
78426;SDS011;67722;50.204;8.570;2023-09-19T04:30:35;3.15;;;1.58;;
78426;SDS011;67722;50.204;8.570;2023-09-19T04:33:00;4.20;;;1.30;;
78426;SDS011;67722;50.204;8.570;2023-09-19T04:35:26;1.90;;;1.17;;
78426;SDS011;67722;50.204;8.570;2023-09-19T04:37:54;1.60;;;1.20;;
78426;SDS011;67722;50.204;8.570;2023-09-19T04:40:19;1.75;;;1.00;;
78426;SDS011;67722;50.204;8.570;2023-09-19T04:42:45;1.85;;;1.23;;
78426;SDS011;67722;50.204;8.570;2023-09-19T04:45:21;1.92;;;1.10;;
78426;SDS011;67722;50.204;8.570;2023-09-19T04:47:46;3.20;;;1.10;;
78426;SDS011;67722;50.204;8.570;2023-09-19T04:50:11;0.90;;;0.53;;
78426;SDS011;67722;50.204;8.570;2023-09-19T04:52:38;3.25;;;1.33;;
78426;SDS011;67722;50.204;8.570;2023-09-19T04:55:07;1.92;;;1.15;;
78426;SDS011;67722;50.204;8.570;2023-09-19T04:57:33;1.20;;;0.90;;
78426;SDS011;67722;50.204;8.570;2023-09-19T04:59:59;1.33;;;0.82;;
78426;SDS011;67722;50.204;8.570;2023-09-19T05:02:24;1.93;;;0.70;;
78426;SDS011;67722;50.204;8.570;2023-09-19T05:04:49;0.97;;;0.50;;
78426;SDS011;67722;50.204;8.570;2023-09-19T05:07:15;1.60;;;0.83;;
78426;SDS011;67722;50.204;8.570;2023-09-19T05:09:40;0.80;;;0.37;;
78426;SDS011;67722;50.204;8.570;2023-09-19T05:12:07;0.93;;;0.70;;
78426;SDS011;67722;50.204;8.570;2023-09-19T05:14:32;1.17;;;0.60;;
78426;SDS011;67722;50.204;8.570;2023-09-19T05:16:57;0.90;;;0.60;;
78426;SDS011;67722;50.204;8.570;2023-09-19T05:19:23;1.20;;;0.60;;
78426;SDS011;67722;50.204;8.570;2023-09-19T05:21:48;0.73;;;0.40;;
78426;SDS011;67722;50.204;8.570;2023-09-19T05:24:14;0.70;;;0.30;;
78426;SDS011;67722;50.204;8.570;2023-09-19T05:26:39;1.38;;;0.80;;
78426;SDS011;67722;50.204;8.570;2023-09-19T05:29:05;1.10;;;0.60;;
78426;SDS011;67722;50.204;8.570;2023-09-19T05:31:33;1.65;;;0.65;;
78426;SDS011;67722;50.204;8.570;2023-09-19T05:34:01;1.30;;;0.55;;
78426;SDS011;67722;50.204;8.570;2023-09-19T05:36:26;1.35;;;0.50;;
78426;SDS011;67722;50.204;8.570;2023-09-19T05:38:54;1.20;;;0.80;;
78426;SDS011;67722;50.204;8.570;2023-09-19T05:41:20;1.38;;;0.60;;
78426;SDS011;67722;50.204;8.570;2023-09-19T05:43:46;1.45;;;0.75;;
78426;SDS011;67722;50.204;8.570;2023-09-19T05:46:15;1.33;;;0.50;;
78426;SDS011;67722;50.204;8.570;2023-09-19T05:48:40;1.42;;;0.70;;
78426;SDS011;67722;50.204;8.570;2023-09-19T05:51:06;0.90;;;0.40;;
78426;SDS011;67722;50.204;8.570;2023-09-19T05:53:31;2.13;;;1.10;;
78426;SDS011;67722;50.204;8.570;2023-09-19T05:55:57;0.90;;;0.30;;
78426;SDS011;67722;50.204;8.570;2023-09-19T05:58:23;0.65;;;0.43;;
78426;SDS011;67722;50.204;8.570;2023-09-19T06:00:49;2.20;;;0.40;;
78426;SDS011;67722;50.204;8.570;2023-09-19T06:03:15;1.60;;;0.73;;
78426;SDS011;67722;50.204;8.570;2023-09-19T06:05:42;1.02;;;0.50;;
78426;SDS011;67722;50.204;8.570;2023-09-19T06:08:07;1.02;;;0.60;;
78426;SDS011;67722;50.204;8.570;2023-09-19T06:10:33;2.50;;;0.40;;
78426;SDS011;67722;50.204;8.570;2023-09-19T06:13:00;2.58;;;1.02;;
78426;SDS011;67722;50.204;8.570;2023-09-19T06:15:29;2.67;;;0.80;;
78426;SDS011;67722;50.204;8.570;2023-09-19T06:17:58;1.48;;;0.90;;
78426;SDS011;67722;50.204;8.570;2023-09-19T06:20:29;1.70;;;0.65;;
78426;SDS011;67722;50.204;8.570;2023-09-19T06:22:55;1.65;;;0.82;;
78426;SDS011;67722;50.204;8.570;2023-09-19T06:25:22;3.25;;;1.00;;
78426;SDS011;67722;50.204;8.570;2023-09-19T06:27:51;1.55;;;0.63;;
78426;SDS011;67722;50.204;8.570;2023-09-19T06:30:18;2.05;;;1.02;;
78426;SDS011;67722;50.204;8.570;2023-09-19T06:32:44;2.75;;;0.93;;
78426;SDS011;67722;50.204;8.570;2023-09-19T06:35:13;3.22;;;0.93;;
78426;SDS011;67722;50.204;8.570;2023-09-19T06:37:40;0.70;;;0.40;;
78426;SDS011;67722;50.204;8.570;2023-09-19T06:40:09;3.63;;;0.85;;
78426;SDS011;67722;50.204;8.570;2023-09-19T06:42:42;3.33;;;1.38;;
78426;SDS011;67722;50.204;8.570;2023-09-19T06:45:09;0.95;;;0.45;;
78426;SDS011;67722;50.204;8.570;2023-09-19T06:47:36;7.82;;;0.70;;
78426;SDS011;67722;50.204;8.570;2023-09-19T06:50:02;2.08;;;0.55;;
78426;SDS011;67722;50.204;8.570;2023-09-19T06:52:27;1.67;;;1.00;;
78426;SDS011;67722;50.204;8.570;2023-09-19T06:54:53;0.98;;;0.60;;
78426;SDS011;67722;50.204;8.570;2023-09-19T06:57:18;1.33;;;0.97;;
78426;SDS011;67722;50.204;8.570;2023-09-19T06:59:44;2.45;;;0.95;;
78426;SDS011;67722;50.204;8.570;2023-09-19T07:02:10;3.58;;;1.75;;
78426;SDS011;67722;50.204;8.570;2023-09-19T07:04:35;2.47;;;1.60;;
78426;SDS011;67722;50.204;8.570;2023-09-19T07:07:01;2.40;;;1.00;;
78426;SDS011;67722;50.204;8.570;2023-09-19T07:09:26;1.20;;;0.80;;
78426;SDS011;67722;50.204;8.570;2023-09-19T07:11:54;6.68;;;2.15;;
78426;SDS011;67722;50.204;8.570;2023-09-19T07:14:20;4.30;;;0.90;;
78426;SDS011;67722;50.204;8.570;2023-09-19T07:16:45;1.67;;;0.98;;
78426;SDS011;67722;50.204;8.570;2023-09-19T07:19:12;1.52;;;1.05;;
78426;SDS011;67722;50.204;8.570;2023-09-19T07:21:40;1.98;;;1.00;;
78426;SDS011;67722;50.204;8.570;2023-09-19T07:24:05;1.65;;;0.93;;
78426;SDS011;67722;50.204;8.570;2023-09-19T07:26:31;2.10;;;0.70;;
78426;SDS011;67722;50.204;8.570;2023-09-19T07:28:56;1.17;;;0.60;;
78426;SDS011;67722;50.204;8.570;2023-09-19T07:31:22;1.00;;;0.50;;
78426;SDS011;67722;50.204;8.570;2023-09-19T07:33:48;0.95;;;0.60;;
78426;SDS011;67722;50.204;8.570;2023-09-19T07:36:14;2.92;;;1.02;;
78426;SDS011;67722;50.204;8.570;2023-09-19T07:38:40;2.08;;;0.55;;
78426;SDS011;67722;50.204;8.570;2023-09-19T07:41:06;4.53;;;1.02;;
78426;SDS011;67722;50.204;8.570;2023-09-19T07:43:34;1.23;;;0.32;;
78426;SDS011;67722;50.204;8.570;2023-09-19T07:46:06;1.52;;;0.70;;
78426;SDS011;67722;50.204;8.570;2023-09-19T07:48:32;0.93;;;0.50;;
78426;SDS011;67722;50.204;8.570;2023-09-19T07:51:05;0.57;;;0.35;;
78426;SDS011;67722;50.204;8.570;2023-09-19T07:53:32;1.33;;;0.55;;
78426;SDS011;67722;50.204;8.570;2023-09-19T07:56:03;1.50;;;0.85;;
78426;SDS011;67722;50.204;8.570;2023-09-19T07:58:29;0.63;;;0.40;;
78426;SDS011;67722;50.204;8.570;2023-09-19T08:00:54;2.42;;;0.50;;
78426;SDS011;67722;50.204;8.570;2023-09-19T08:03:20;3.47;;;0.37;;
78426;SDS011;67722;50.204;8.570;2023-09-19T08:05:45;1.93;;;0.80;;
78426;SDS011;67722;50.204;8.570;2023-09-19T08:08:10;3.63;;;0.40;;
78426;SDS011;67722;50.204;8.570;2023-09-19T08:10:38;0.60;;;0.38;;
78426;SDS011;67722;50.204;8.570;2023-09-19T08:13:07;0.65;;;0.32;;
78426;SDS011;67722;50.204;8.570;2023-09-19T08:15:36;0.73;;;0.25;;
78426;SDS011;67722;50.204;8.570;2023-09-19T08:18:01;1.77;;;0.40;;
78426;SDS011;67722;50.204;8.570;2023-09-19T08:20:26;1.65;;;0.50;;
78426;SDS011;67722;50.204;8.570;2023-09-19T08:22:53;0.90;;;0.30;;
78426;SDS011;67722;50.204;8.570;2023-09-19T08:25:21;0.98;;;0.38;;
78426;SDS011;67722;50.204;8.570;2023-09-19T08:27:48;2.38;;;0.57;;
78426;SDS011;67722;50.204;8.570;2023-09-19T08:30:21;3.25;;;0.43;;
78426;SDS011;67722;50.204;8.570;2023-09-19T08:32:50;0.85;;;0.50;;
78426;SDS011;67722;50.204;8.570;2023-09-19T08:35:15;0.95;;;0.50;;
78426;SDS011;67722;50.204;8.570;2023-09-19T08:37:42;0.50;;;0.20;;
78426;SDS011;67722;50.204;8.570;2023-09-19T08:40:08;1.15;;;0.40;;
78426;SDS011;67722;50.204;8.570;2023-09-19T08:42:46;1.10;;;0.47;;
78426;SDS011;67722;50.204;8.570;2023-09-19T08:45:15;0.77;;;0.30;;
78426;SDS011;67722;50.204;8.570;2023-09-19T08:47:50;0.98;;;0.45;;
78426;SDS011;67722;50.204;8.570;2023-09-19T08:50:28;0.32;;;0.15;;
78426;SDS011;67722;50.204;8.570;2023-09-19T08:52:55;0.95;;;0.40;;
78426;SDS011;67722;50.204;8.570;2023-09-19T08:55:23;1.05;;;0.30;;
78426;SDS011;67722;50.204;8.570;2023-09-19T08:57:55;0.68;;;0.43;;
78426;SDS011;67722;50.204;8.570;2023-09-19T09:00:27;2.58;;;0.38;;
78426;SDS011;67722;50.204;8.570;2023-09-19T09:02:53;1.38;;;0.70;;
78426;SDS011;67722;50.204;8.570;2023-09-19T09:05:19;5.30;;;0.60;;
78426;SDS011;67722;50.204;8.570;2023-09-19T09:07:47;1.13;;;0.40;;
78426;SDS011;67722;50.204;8.570;2023-09-19T09:10:16;1.35;;;0.20;;
78426;SDS011;67722;50.204;8.570;2023-09-19T09:12:42;1.25;;;0.50;;
78426;SDS011;67722;50.204;8.570;2023-09-19T09:15:08;2.95;;;0.40;;
78426;SDS011;67722;50.204;8.570;2023-09-19T09:17:36;0.80;;;0.20;;
78426;SDS011;67722;50.204;8.570;2023-09-19T09:20:02;1.55;;;0.30;;
78426;SDS011;67722;50.204;8.570;2023-09-19T09:22:30;1.95;;;0.38;;
78426;SDS011;67722;50.204;8.570;2023-09-19T09:24:57;6.00;;;0.50;;
78426;SDS011;67722;50.204;8.570;2023-09-19T09:27:30;1.25;;;0.50;;
78426;SDS011;67722;50.204;8.570;2023-09-19T09:29:56;0.65;;;0.22;;
78426;SDS011;67722;50.204;8.570;2023-09-19T09:32:31;2.58;;;0.40;;
78426;SDS011;67722;50.204;8.570;2023-09-19T09:35:00;0.82;;;0.10;;
78426;SDS011;67722;50.204;8.570;2023-09-19T09:37:27;1.42;;;0.40;;
78426;SDS011;67722;50.204;8.570;2023-09-19T09:42:33;1.45;;;0.30;;
78426;SDS011;67722;50.204;8.570;2023-09-19T09:45:22;2.75;;;0.52;;
78426;SDS011;67722;50.204;8.570;2023-09-19T09:47:59;2.35;;;0.30;;
78426;SDS011;67722;50.204;8.570;2023-09-19T09:50:35;2.75;;;0.90;;
78426;SDS011;67722;50.204;8.570;2023-09-19T09:53:22;1.08;;;0.43;;
78426;SDS011;67722;50.204;8.570;2023-09-19T09:58:34;0.85;;;0.20;;
78426;SDS011;67722;50.204;8.570;2023-09-19T10:01:01;3.88;;;0.30;;
78426;SDS011;67722;50.204;8.570;2023-09-19T10:03:34;0.95;;;0.30;;
78426;SDS011;67722;50.204;8.570;2023-09-19T10:06:04;0.90;;;0.32;;
78426;SDS011;67722;50.204;8.570;2023-09-19T10:09:03;0.50;;;0.17;;
78426;SDS011;67722;50.204;8.570;2023-09-19T10:11:37;0.70;;;0.20;;
78426;SDS011;67722;50.204;8.570;2023-09-19T10:14:08;0.75;;;0.45;;
78426;SDS011;67722;50.204;8.570;2023-09-19T10:16:35;1.90;;;0.45;;
78426;SDS011;67722;50.204;8.570;2023-09-19T10:19:07;0.80;;;0.30;;
78426;SDS011;67722;50.204;8.570;2023-09-19T10:21:34;2.00;;;0.52;;
78426;SDS011;67722;50.204;8.570;2023-09-19T10:24:01;2.70;;;0.50;;
78426;SDS011;67722;50.204;8.570;2023-09-19T10:26:29;2.38;;;0.50;;
78426;SDS011;67722;50.204;8.570;2023-09-19T10:28:56;1.60;;;0.70;;
78426;SDS011;67722;50.204;8.570;2023-09-19T10:31:22;2.78;;;0.95;;
78426;SDS011;67722;50.204;8.570;2023-09-19T10:33:50;3.00;;;0.90;;
78426;SDS011;67722;50.204;8.570;2023-09-19T10:36:16;3.20;;;0.70;;
78426;SDS011;67722;50.204;8.570;2023-09-19T10:38:44;1.48;;;0.50;;
78426;SDS011;67722;50.204;8.570;2023-09-19T10:41:11;2.90;;;0.32;;
78426;SDS011;67722;50.204;8.570;2023-09-19T10:43:39;0.70;;;0.30;;
78426;SDS011;67722;50.204;8.570;2023-09-19T10:46:07;2.47;;;0.95;;
78426;SDS011;67722;50.204;8.570;2023-09-19T10:48:37;1.15;;;0.45;;
78426;SDS011;67722;50.204;8.570;2023-09-19T10:51:08;4.00;;;0.45;;
78426;SDS011;67722;50.204;8.570;2023-09-19T10:53:43;0.63;;;0.40;;
78426;SDS011;67722;50.204;8.570;2023-09-19T10:56:15;1.63;;;0.50;;
78426;SDS011;67722;50.204;8.570;2023-09-19T10:58:43;0.95;;;0.30;;
78426;SDS011;67722;50.204;8.570;2023-09-19T11:01:10;3.88;;;0.82;;
78426;SDS011;67722;50.204;8.570;2023-09-19T11:03:40;0.65;;;0.28;;
78426;SDS011;67722;50.204;8.570;2023-09-19T11:06:18;3.10;;;0.52;;
78426;SDS011;67722;50.204;8.570;2023-09-19T11:09:03;1.70;;;0.32;;
78426;SDS011;67722;50.204;8.570;2023-09-19T11:11:39;0.85;;;0.32;;
78426;SDS011;67722;50.204;8.570;2023-09-19T11:30:31;3.92;;;0.50;;
78426;SDS011;67722;50.204;8.570;2023-09-19T11:33:16;1.52;;;0.57;;
78426;SDS011;67722;50.204;8.570;2023-09-19T11:43:50;1.20;;;0.95;;
78426;SDS011;67722;50.204;8.570;2023-09-19T11:46:24;5.68;;;0.98;;
78426;SDS011;67722;50.204;8.570;2023-09-19T11:48:49;2.05;;;0.45;;
78426;SDS011;67722;50.204;8.570;2023-09-19T11:51:16;1.77;;;0.50;;
78426;SDS011;67722;50.204;8.570;2023-09-19T11:53:52;1.95;;;0.52;;
78426;SDS011;67722;50.204;8.570;2023-09-19T11:56:22;1.75;;;0.70;;
78426;SDS011;67722;50.204;8.570;2023-09-19T11:58:53;2.50;;;0.55;;
78426;SDS011;67722;50.204;8.570;2023-09-19T12:01:21;2.70;;;0.98;;
78426;SDS011;67722;50.204;8.570;2023-09-19T12:03:58;2.20;;;0.47;;
78426;SDS011;67722;50.204;8.570;2023-09-19T12:06:24;3.75;;;1.20;;
78426;SDS011;67722;50.204;8.570;2023-09-19T12:08:50;1.65;;;0.68;;
78426;SDS011;67722;50.204;8.570;2023-09-19T12:11:18;1.20;;;0.50;;
78426;SDS011;67722;50.204;8.570;2023-09-19T12:13:46;1.67;;;0.50;;
78426;SDS011;67722;50.204;8.570;2023-09-19T12:18:40;3.42;;;1.05;;
78426;SDS011;67722;50.204;8.570;2023-09-19T12:21:08;0.60;;;0.40;;
78426;SDS011;67722;50.204;8.570;2023-09-19T12:23:37;0.85;;;0.30;;
78426;SDS011;67722;50.204;8.570;2023-09-19T12:26:06;2.10;;;0.52;;
78426;SDS011;67722;50.204;8.570;2023-09-19T12:28:41;2.35;;;0.63;;
78426;SDS011;67722;50.204;8.570;2023-09-19T12:31:07;1.33;;;0.45;;
78426;SDS011;67722;50.204;8.570;2023-09-19T12:33:35;1.92;;;0.77;;
78426;SDS011;67722;50.204;8.570;2023-09-19T12:36:18;0.80;;;0.30;;
78426;SDS011;67722;50.204;8.570;2023-09-19T12:38:47;0.98;;;0.30;;
78426;SDS011;67722;50.204;8.570;2023-09-19T12:41:13;1.80;;;0.63;;
78426;SDS011;67722;50.204;8.570;2023-09-19T12:43:39;2.50;;;0.40;;
78426;SDS011;67722;50.204;8.570;2023-09-19T12:46:04;1.45;;;0.38;;
78426;SDS011;67722;50.204;8.570;2023-09-19T12:48:30;0.90;;;0.40;;
78426;SDS011;67722;50.204;8.570;2023-09-19T12:53:35;0.70;;;0.30;;
78426;SDS011;67722;50.204;8.570;2023-09-19T12:56:11;1.90;;;0.57;;
78426;SDS011;67722;50.204;8.570;2023-09-19T13:01:20;2.63;;;0.30;;
78426;SDS011;67722;50.204;8.570;2023-09-19T13:06:49;0.52;;;0.10;;
78426;SDS011;67722;50.204;8.570;2023-09-19T13:09:15;0.93;;;0.30;;
78426;SDS011;67722;50.204;8.570;2023-09-19T13:11:41;2.28;;;0.30;;
78426;SDS011;67722;50.204;8.570;2023-09-19T13:14:13;0.90;;;0.32;;
78426;SDS011;67722;50.204;8.570;2023-09-19T13:19:34;1.98;;;0.40;;
78426;SDS011;67722;50.204;8.570;2023-09-19T13:22:49;1.08;;;0.28;;
78426;SDS011;67722;50.204;8.570;2023-09-19T13:25:23;1.42;;;0.32;;
78426;SDS011;67722;50.204;8.570;2023-09-19T13:27:49;1.23;;;0.28;;
78426;SDS011;67722;50.204;8.570;2023-09-19T13:30:21;1.58;;;0.20;;
78426;SDS011;67722;50.204;8.570;2023-09-19T13:32:47;0.93;;;0.52;;
78426;SDS011;67722;50.204;8.570;2023-09-19T13:35:16;1.02;;;0.28;;
78426;SDS011;67722;50.204;8.570;2023-09-19T13:37:41;6.72;;;0.40;;
78426;SDS011;67722;50.204;8.570;2023-09-19T13:40:14;0.60;;;0.22;;
78426;SDS011;67722;50.204;8.570;2023-09-19T13:42:40;0.68;;;0.20;;
78426;SDS011;67722;50.204;8.570;2023-09-19T13:45:06;1.23;;;0.40;;
78426;SDS011;67722;50.204;8.570;2023-09-19T13:47:32;1.00;;;0.20;;
78426;SDS011;67722;50.204;8.570;2023-09-19T13:49:58;1.02;;;0.10;;
78426;SDS011;67722;50.204;8.570;2023-09-19T13:52:24;1.60;;;0.52;;
78426;SDS011;67722;50.204;8.570;2023-09-19T13:54:53;1.70;;;0.28;;
78426;SDS011;67722;50.204;8.570;2023-09-19T13:57:19;2.13;;;0.32;;
78426;SDS011;67722;50.204;8.570;2023-09-19T13:59:44;0.83;;;0.30;;
78426;SDS011;67722;50.204;8.570;2023-09-19T14:02:09;4.28;;;0.40;;
78426;SDS011;67722;50.204;8.570;2023-09-19T14:04:34;1.85;;;0.20;;
78426;SDS011;67722;50.204;8.570;2023-09-19T14:07:00;0.65;;;0.15;;
78426;SDS011;67722;50.204;8.570;2023-09-19T14:09:26;0.73;;;0.20;;
78426;SDS011;67722;50.204;8.570;2023-09-19T14:11:52;1.25;;;0.52;;
78426;SDS011;67722;50.204;8.570;2023-09-19T14:14:20;1.90;;;0.32;;
78426;SDS011;67722;50.204;8.570;2023-09-19T14:16:46;1.83;;;0.38;;
78426;SDS011;67722;50.204;8.570;2023-09-19T14:19:12;1.05;;;0.20;;
78426;SDS011;67722;50.204;8.570;2023-09-19T14:21:38;3.10;;;0.25;;
78426;SDS011;67722;50.204;8.570;2023-09-19T14:24:04;0.90;;;0.28;;
78426;SDS011;67722;50.204;8.570;2023-09-19T14:26:34;1.52;;;0.32;;
78426;SDS011;67722;50.204;8.570;2023-09-19T14:28:59;1.60;;;0.25;;
78426;SDS011;67722;50.204;8.570;2023-09-19T14:31:25;2.17;;;0.10;;
78426;SDS011;67722;50.204;8.570;2023-09-19T14:33:53;0.45;;;0.10;;
78426;SDS011;67722;50.204;8.570;2023-09-19T14:36:21;2.22;;;0.17;;
78426;SDS011;67722;50.204;8.570;2023-09-19T14:38:47;3.10;;;0.20;;
78426;SDS011;67722;50.204;8.570;2023-09-19T14:41:12;0.40;;;0.20;;
78426;SDS011;67722;50.204;8.570;2023-09-19T14:43:38;0.28;;;0.10;;
78426;SDS011;67722;50.204;8.570;2023-09-19T14:46:03;0.40;;;0.17;;
78426;SDS011;67722;50.204;8.570;2023-09-19T14:48:35;0.60;;;0.20;;
78426;SDS011;67722;50.204;8.570;2023-09-19T14:51:03;1.10;;;0.20;;
78426;SDS011;67722;50.204;8.570;2023-09-19T14:53:30;0.30;;;0.10;;
78426;SDS011;67722;50.204;8.570;2023-09-19T14:55:56;1.00;;;0.20;;
78426;SDS011;67722;50.204;8.570;2023-09-19T14:58:21;0.60;;;0.22;;
78426;SDS011;67722;50.204;8.570;2023-09-19T15:00:46;1.38;;;0.15;;
78426;SDS011;67722;50.204;8.570;2023-09-19T15:03:12;2.30;;;0.52;;
78426;SDS011;67722;50.204;8.570;2023-09-19T15:05:38;0.77;;;0.45;;
78426;SDS011;67722;50.204;8.570;2023-09-19T15:08:04;1.20;;;0.17;;
78426;SDS011;67722;50.204;8.570;2023-09-19T15:10:30;0.90;;;0.13;;
78426;SDS011;67722;50.204;8.570;2023-09-19T15:12:56;5.22;;;0.35;;
78426;SDS011;67722;50.204;8.570;2023-09-19T15:15:21;1.13;;;0.20;;
78426;SDS011;67722;50.204;8.570;2023-09-19T15:17:46;0.10;;;0.00;;
78426;SDS011;67722;50.204;8.570;2023-09-19T15:20:12;0.93;;;0.20;;
78426;SDS011;67722;50.204;8.570;2023-09-19T15:22:39;1.35;;;0.20;;
78426;SDS011;67722;50.204;8.570;2023-09-19T15:25:04;0.80;;;0.30;;
78426;SDS011;67722;50.204;8.570;2023-09-19T15:27:30;3.63;;;0.25;;
78426;SDS011;67722;50.204;8.570;2023-09-19T15:29:57;1.83;;;0.28;;
78426;SDS011;67722;50.204;8.570;2023-09-19T15:32:23;0.70;;;0.10;;
78426;SDS011;67722;50.204;8.570;2023-09-19T15:34:49;0.75;;;0.20;;
78426;SDS011;67722;50.204;8.570;2023-09-19T15:37:14;1.43;;;0.40;;
78426;SDS011;67722;50.204;8.570;2023-09-19T15:39:40;1.50;;;0.50;;
78426;SDS011;67722;50.204;8.570;2023-09-19T15:42:06;0.60;;;0.13;;
78426;SDS011;67722;50.204;8.570;2023-09-19T15:44:31;0.88;;;0.20;;
78426;SDS011;67722;50.204;8.570;2023-09-19T15:46:57;0.40;;;0.10;;
78426;SDS011;67722;50.204;8.570;2023-09-19T15:49:23;1.38;;;0.20;;
78426;SDS011;67722;50.204;8.570;2023-09-19T15:51:48;0.30;;;0.25;;
78426;SDS011;67722;50.204;8.570;2023-09-19T15:54:14;1.63;;;0.17;;
78426;SDS011;67722;50.204;8.570;2023-09-19T15:56:40;0.65;;;0.00;;
78426;SDS011;67722;50.204;8.570;2023-09-19T15:59:06;0.57;;;0.10;;
78426;SDS011;67722;50.204;8.570;2023-09-19T16:01:32;1.42;;;0.45;;